createdAt,value
2018-03-27T00:00:25.301Z,0
2018-03-27T00:01:25.671Z,0
2018-03-27T00:02:25.587Z,0
2018-03-27T00:04:25.621Z,0
2018-03-27T00:05:25.516Z,0
2018-03-27T00:06:25.650Z,0
2018-03-27T00:07:40.064Z,0
2018-03-27T00:08:25.691Z,0
2018-03-27T00:09:40.367Z,0
2018-03-27T00:10:25.713Z,0
2018-03-27T00:12:25.484Z,0
2018-03-27T00:13:40.160Z,0
2018-03-27T00:14:25.510Z,0
2018-03-27T00:15:25.271Z,0
2018-03-27T00:16:25.701Z,0
2018-03-27T00:17:25.822Z,0
2018-03-27T00:18:25.832Z,0
2018-03-27T00:19:40.612Z,0
2018-03-27T00:21:25.893Z,0
2018-03-27T00:22:25.901Z,0
2018-03-27T00:23:25.666Z,0
2018-03-27T00:24:25.926Z,0
2018-03-27T00:25:25.938Z,0
2018-03-27T00:26:25.182Z,0
2018-03-27T00:27:40.375Z,0
2018-03-27T00:28:25.738Z,0
2018-03-27T00:29:25.490Z,0
2018-03-27T00:30:26.019Z,0
2018-03-27T00:31:26.047Z,0
2018-03-27T00:32:26.048Z,0
2018-03-27T00:33:26.065Z,0
2018-03-27T00:34:40.481Z,0
2018-03-27T00:35:40.753Z,0
2018-03-27T00:37:26.134Z,0
2018-03-27T00:38:25.891Z,0
2018-03-27T00:39:25.640Z,0
2018-03-27T00:40:26.179Z,0
2018-03-27T00:41:25.780Z,0
2018-03-27T00:42:40.867Z,0
2018-03-27T00:43:26.220Z,0
2018-03-27T00:44:40.633Z,0
2018-03-27T00:45:26.253Z,0
2018-03-27T00:46:40.934Z,0
2018-03-27T00:47:40.949Z,0
2018-03-27T00:48:25.778Z,0
2018-03-27T00:49:26.333Z,0
2018-03-27T00:50:26.072Z,0
2018-03-27T00:51:41.004Z,0
2018-03-27T00:52:26.367Z,0
2018-03-27T00:53:41.034Z,0
2018-03-27T00:54:26.141Z,0
2018-03-27T00:55:26.158Z,0
2018-03-27T00:57:26.444Z,0
2018-03-27T00:58:25.936Z,0
2018-03-27T00:59:26.260Z,0
2018-03-27T01:00:26.583Z,0
2018-03-27T01:01:26.245Z,0
2018-03-27T01:02:26.521Z,0
2018-03-27T01:03:26.535Z,0
2018-03-27T01:05:26.053Z,0
2018-03-27T01:06:41.246Z,0
2018-03-27T01:07:26.335Z,0
2018-03-27T01:08:26.617Z,0
2018-03-27T01:09:26.627Z,0
2018-03-27T01:10:41.301Z,0
2018-03-27T01:11:26.403Z,0
2018-03-27T01:12:26.417Z,0
2018-03-27T01:13:26.696Z,0
2018-03-27T01:14:26.751Z,0
2018-03-27T01:15:26.737Z,0
2018-03-27T01:16:26.479Z,0
2018-03-27T01:17:26.749Z,0
2018-03-27T01:18:26.677Z,0
2018-03-27T01:19:26.532Z,0
2018-03-27T01:20:26.852Z,0
2018-03-27T01:21:26.812Z,0
2018-03-27T01:22:26.829Z,0
2018-03-27T01:23:26.591Z,0
2018-03-27T01:24:41.517Z,0
2018-03-27T01:25:26.922Z,0
2018-03-27T01:26:26.633Z,0
2018-03-27T01:27:41.340Z,0
2018-03-27T01:29:26.682Z,0
2018-03-27T01:30:41.347Z,0
2018-03-27T01:31:26.713Z,0
2018-03-27T01:32:26.984Z,0
2018-03-27T01:33:26.739Z,0
2018-03-27T01:34:26.856Z,0
2018-03-27T01:35:26.768Z,0
2018-03-27T01:36:27.041Z,0
2018-03-27T01:37:27.055Z,0
2018-03-27T01:38:41.736Z,0
2018-03-27T01:39:26.628Z,0
2018-03-27T01:40:27.105Z,0
2018-03-27T01:41:26.878Z,0
2018-03-27T01:42:27.243Z,0
2018-03-27T01:43:41.565Z,0
2018-03-27T01:44:26.748Z,0
2018-03-27T01:46:26.944Z,0
2018-03-27T01:47:27.218Z,0
2018-03-27T01:48:27.221Z,0
2018-03-27T01:49:41.908Z,0
2018-03-27T01:50:41.658Z,0
2018-03-27T01:51:27.014Z,0
2018-03-27T01:52:26.780Z,0
2018-03-27T01:53:27.041Z,0
2018-03-27T01:54:41.977Z,0
2018-03-27T01:55:41.993Z,0
2018-03-27T01:56:27.347Z,0
2018-03-27T01:57:27.364Z,0
2018-03-27T01:58:41.777Z,0
2018-03-27T01:59:26.882Z,0
2018-03-27T02:00:27.150Z,0
2018-03-27T02:01:42.085Z,0
2018-03-27T02:02:27.459Z,0
2018-03-27T02:03:27.458Z,0
2018-03-27T02:04:41.609Z,0
2018-03-27T02:05:27.484Z,0
2018-03-27T02:06:42.167Z,0
2018-03-27T02:07:27.514Z,0
2018-03-27T02:08:27.017Z,0
2018-03-27T02:09:27.302Z,0
2018-03-27T02:10:42.229Z,0
2018-03-27T02:11:27.585Z,0
2018-03-27T02:12:27.596Z,0
2018-03-27T02:13:27.617Z,0
2018-03-27T02:14:27.642Z,0
2018-03-27T02:15:27.455Z,0
2018-03-27T02:16:27.403Z,0
2018-03-27T02:17:27.671Z,0
2018-03-27T02:18:27.685Z,0
2018-03-27T02:19:27.708Z,0
2018-03-27T02:20:27.455Z,0
2018-03-27T02:21:27.741Z,0
2018-03-27T02:22:27.239Z,0
2018-03-27T02:23:27.864Z,0
2018-03-27T02:24:27.782Z,0
2018-03-27T02:25:42.453Z,0
2018-03-27T02:26:57.127Z,0
2018-03-27T02:27:27.827Z,0
2018-03-27T02:28:27.845Z,0
2018-03-27T02:30:27.879Z,0
2018-03-27T02:31:27.887Z,0
2018-03-27T02:32:27.910Z,0
2018-03-27T02:33:27.673Z,0
2018-03-27T02:34:27.974Z,0
2018-03-27T02:35:27.949Z,0
2018-03-27T02:36:27.703Z,0
2018-03-27T02:37:27.467Z,0
2018-03-27T02:38:27.752Z,0
2018-03-27T02:39:28.027Z,0
2018-03-27T02:40:28.135Z,0
2018-03-27T02:41:42.700Z,0
2018-03-27T02:42:28.062Z,0
2018-03-27T02:43:28.080Z,0
2018-03-27T02:44:28.108Z,0
2018-03-27T02:45:27.843Z,0
2018-03-27T02:46:27.858Z,0
2018-03-27T02:47:27.886Z,0
2018-03-27T02:48:28.147Z,0
2018-03-27T02:49:27.917Z,0
2018-03-27T02:50:28.176Z,0
2018-03-27T02:51:28.204Z,0
2018-03-27T02:52:28.220Z,0
2018-03-27T02:53:27.972Z,0
2018-03-27T02:54:27.719Z,0
2018-03-27T02:55:28.257Z,0
2018-03-27T02:56:28.282Z,0
2018-03-27T02:57:28.387Z,0
2018-03-27T02:58:28.053Z,0
2018-03-27T03:00:27.551Z,0
2018-03-27T03:01:28.478Z,0
2018-03-27T03:02:43.030Z,0
2018-03-27T03:03:28.442Z,0
2018-03-27T03:05:42.803Z,0
2018-03-27T03:06:28.417Z,0
2018-03-27T03:07:28.176Z,0
2018-03-27T03:08:28.448Z,0
2018-03-27T03:09:28.199Z,0
2018-03-27T03:10:28.475Z,0
2018-03-27T03:11:28.233Z,0
2018-03-27T03:12:27.999Z,0
2018-03-27T03:13:43.179Z,0
2018-03-27T03:14:28.538Z,0
2018-03-27T03:15:28.575Z,0
2018-03-27T03:16:28.308Z,0
2018-03-27T03:17:28.592Z,0
2018-03-27T03:18:28.596Z,0
2018-03-27T03:19:28.354Z,0
2018-03-27T03:20:28.629Z,0
2018-03-27T03:21:43.308Z,0
2018-03-27T03:22:43.065Z,0
2018-03-27T03:23:42.812Z,0
2018-03-27T03:24:28.174Z,0
2018-03-27T03:25:28.718Z,0
2018-03-27T03:27:28.475Z,0
2018-03-27T03:29:43.423Z,0
2018-03-27T03:30:28.632Z,0
2018-03-27T03:32:28.831Z,0
2018-03-27T03:33:28.829Z,0
2018-03-27T03:36:43.276Z,0
2018-03-27T03:37:43.545Z,0
2018-03-27T03:38:28.972Z,0
2018-03-27T03:40:28.933Z,0
2018-03-27T03:41:43.355Z,0
2018-03-27T03:42:28.977Z,0
2018-03-27T03:43:28.994Z,0
2018-03-27T03:44:28.783Z,0
2018-03-27T03:45:43.410Z,0
2018-03-27T03:46:29.027Z,0
2018-03-27T03:47:28.797Z,0
2018-03-27T03:48:43.728Z,0
2018-03-27T03:50:28.422Z,0
2018-03-27T03:52:43.784Z,0
2018-03-27T03:53:29.142Z,0
2018-03-27T03:54:28.889Z,0
2018-03-27T03:55:29.178Z,0
2018-03-27T03:56:28.408Z,0
2018-03-27T03:57:29.200Z,0
2018-03-27T03:58:29.214Z,0
2018-03-27T03:59:43.901Z,0
2018-03-27T04:00:29.307Z,0
2018-03-27T04:01:43.396Z,0
2018-03-27T04:02:43.675Z,0
2018-03-27T04:03:29.286Z,0
2018-03-27T04:04:29.097Z,0
2018-03-27T04:05:29.073Z,0
2018-03-27T04:06:43.474Z,0
2018-03-27T04:07:44.005Z,0
2018-03-27T04:08:29.362Z,0
2018-03-27T04:09:43.518Z,0
2018-03-27T04:10:29.137Z,0
2018-03-27T04:11:29.590Z,0
2018-03-27T04:12:29.181Z,0
2018-03-27T04:13:43.840Z,0
2018-03-27T04:14:29.204Z,0
2018-03-27T04:15:29.217Z,0
2018-03-27T04:16:43.944Z,0
2018-03-27T04:18:44.180Z,0
2018-03-27T04:19:29.027Z,0
2018-03-27T04:20:29.553Z,0
2018-03-27T04:21:29.310Z,0
2018-03-27T04:22:29.580Z,0
2018-03-27T04:23:29.338Z,0
2018-03-27T04:25:44.396Z,0
2018-03-27T04:26:29.383Z,0
2018-03-27T04:27:29.653Z,0
2018-03-27T04:28:29.675Z,0
2018-03-27T04:29:29.699Z,0
2018-03-27T04:30:28.923Z,0
2018-03-27T04:31:29.723Z,0
2018-03-27T04:32:29.216Z,0
2018-03-27T04:33:44.417Z,0
2018-03-27T04:34:44.162Z,0
2018-03-27T04:35:29.881Z,0
2018-03-27T04:36:29.787Z,0
2018-03-27T04:37:29.805Z,0
2018-03-27T04:38:29.301Z,0
2018-03-27T04:39:29.320Z,0
2018-03-27T04:40:29.851Z,0
2018-03-27T04:41:29.347Z,0
2018-03-27T04:42:29.877Z,0
2018-03-27T04:43:29.894Z,0
2018-03-27T04:44:29.955Z,0
2018-03-27T04:45:29.930Z,0
2018-03-27T04:46:29.680Z,0
2018-03-27T04:47:29.437Z,0
2018-03-27T04:48:59.283Z,0
2018-03-27T04:49:44.381Z,0
2018-03-27T04:51:30.020Z,0
2018-03-27T04:52:44.587Z,0
2018-03-27T04:53:30.043Z,0
2018-03-27T04:54:29.540Z,5
2018-03-27T04:55:30.070Z,5
2018-03-27T04:56:30.094Z,5
2018-03-27T04:57:29.862Z,5
2018-03-27T04:58:29.603Z,5
2018-03-27T04:59:29.877Z,5
2018-03-27T05:00:29.632Z,5
2018-03-27T05:01:30.168Z,5
2018-03-27T05:02:29.844Z,10
2018-03-27T05:03:29.933Z,10
2018-03-27T05:04:44.608Z,10
2018-03-27T05:05:29.976Z,10
2018-03-27T05:06:30.253Z,10
2018-03-27T05:07:44.907Z,10
2018-03-27T05:08:30.265Z,10
2018-03-27T05:09:29.499Z,15
2018-03-27T05:10:30.290Z,15
2018-03-27T05:12:44.992Z,20
2018-03-27T05:13:29.569Z,20
2018-03-27T05:14:44.753Z,20
2018-03-27T05:15:30.371Z,25
2018-03-27T05:16:29.864Z,25
2018-03-27T05:17:30.398Z,25
2018-03-27T05:18:30.254Z,30
2018-03-27T05:19:30.270Z,30
2018-03-27T05:20:44.848Z,30
2018-03-27T05:21:30.457Z,30
2018-03-27T05:22:30.214Z,30
2018-03-27T05:23:30.486Z,35
2018-03-27T05:24:45.179Z,45
2018-03-27T05:25:30.518Z,50
2018-03-27T05:26:30.397Z,45
2018-03-27T05:27:30.292Z,40
2018-03-27T05:28:30.573Z,50
2018-03-27T05:29:30.585Z,50
2018-03-27T05:30:30.453Z,55
2018-03-27T05:31:30.610Z,90
2018-03-27T05:32:30.369Z,90
2018-03-27T05:34:30.407Z,55
2018-03-27T05:35:30.678Z,60
2018-03-27T05:36:45.373Z,40
2018-03-27T05:37:30.508Z,40
2018-03-27T05:38:30.725Z,40
2018-03-27T05:39:30.737Z,40
2018-03-27T05:41:30.774Z,45
2018-03-27T05:42:30.361Z,50
2018-03-27T05:43:30.551Z,50
2018-03-27T05:44:30.554Z,55
2018-03-27T05:45:45.492Z,55
2018-03-27T05:46:30.590Z,55
2018-03-27T05:47:30.866Z,55
2018-03-27T05:48:30.884Z,50
2018-03-27T05:49:30.910Z,50
2018-03-27T05:50:30.917Z,55
2018-03-27T05:51:45.630Z,65
2018-03-27T05:52:45.342Z,70
2018-03-27T05:53:45.354Z,75
2018-03-27T05:54:30.719Z,75
2018-03-27T05:55:30.736Z,75
2018-03-27T05:56:31.010Z,70
2018-03-27T05:57:30.762Z,70
2018-03-27T05:58:45.694Z,75
2018-03-27T05:59:45.464Z,70
2018-03-27T06:00:45.730Z,75
2018-03-27T06:01:30.831Z,90
2018-03-27T06:02:30.838Z,130
2018-03-27T06:03:45.613Z,85
2018-03-27T06:05:30.894Z,95
2018-03-27T06:06:45.824Z,125
2018-03-27T06:07:31.188Z,210
2018-03-27T06:08:31.203Z,380
2018-03-27T06:09:30.974Z,420
2018-03-27T06:10:31.245Z,385
2018-03-27T06:11:30.734Z,420
2018-03-27T06:12:31.263Z,430
2018-03-27T06:13:45.947Z,430
2018-03-27T06:14:31.060Z,405
2018-03-27T06:15:31.328Z,345
2018-03-27T06:16:46.009Z,195
2018-03-27T06:17:31.201Z,170
2018-03-27T06:18:31.122Z,160
2018-03-27T06:19:30.883Z,155
2018-03-27T06:20:31.167Z,150
2018-03-27T06:21:46.101Z,135
2018-03-27T06:22:46.117Z,110
2018-03-27T06:23:46.195Z,85
2018-03-27T06:24:31.586Z,80
2018-03-27T06:25:31.520Z,80
2018-03-27T06:26:31.551Z,80
2018-03-27T06:27:31.682Z,80
2018-03-27T06:28:31.575Z,85
2018-03-27T06:29:31.089Z,100
2018-03-27T06:30:31.629Z,120
2018-03-27T06:31:31.635Z,150
2018-03-27T06:32:30.880Z,190
2018-03-27T06:34:31.429Z,355
2018-03-27T06:35:31.472Z,650
2018-03-27T06:36:31.464Z,825
2018-03-27T06:37:31.853Z,875
2018-03-27T06:38:31.761Z,585
2018-03-27T06:39:46.181Z,720
2018-03-27T06:40:31.559Z,850
2018-03-27T06:41:31.831Z,890
2018-03-27T06:42:31.851Z,850
2018-03-27T06:43:31.863Z,825
2018-03-27T06:44:31.375Z,935
2018-03-27T06:45:31.905Z,915
2018-03-27T06:46:31.675Z,940
2018-03-27T06:47:31.690Z,975
2018-03-27T06:48:31.458Z,1015
2018-03-27T06:49:31.998Z,985
2018-03-27T06:50:32.027Z,975
2018-03-27T06:51:31.786Z,1030
2018-03-27T06:52:31.291Z,1000
2018-03-27T06:53:46.496Z,965
2018-03-27T06:54:32.118Z,885
2018-03-27T06:55:46.903Z,990
2018-03-27T06:56:32.166Z,865
2018-03-27T06:57:31.941Z,900
2018-03-27T06:58:32.226Z,1005
2018-03-27T06:59:31.461Z,1065
2018-03-27T07:00:32.264Z,1170
2018-03-27T07:02:32.362Z,1125
2018-03-27T07:04:32.399Z,1110
2018-03-27T07:05:32.378Z,1035
2018-03-27T07:06:46.894Z,1065
2018-03-27T07:07:32.529Z,1060
2018-03-27T07:08:32.314Z,735
2018-03-27T07:09:32.294Z,1010
2018-03-27T07:10:32.673Z,925
2018-03-27T07:11:47.253Z,365
2018-03-27T07:12:32.631Z,260
2018-03-27T07:13:32.640Z,250
2018-03-27T07:14:32.451Z,280
2018-03-27T07:15:32.456Z,390
2018-03-27T07:16:47.405Z,320
2018-03-27T07:17:32.578Z,325
2018-03-27T07:18:46.880Z,380
2018-03-27T07:19:32.965Z,405
2018-03-27T07:20:32.321Z,890
2018-03-27T07:21:32.575Z,585
2018-03-27T07:22:32.685Z,975
2018-03-27T07:23:32.872Z,660
2018-03-27T07:24:32.649Z,535
2018-03-27T07:25:47.579Z,545
2018-03-27T07:27:32.710Z,1080
2018-03-27T07:28:32.477Z,1135
2018-03-27T07:29:33.021Z,1075
2018-03-27T07:30:33.052Z,590
2018-03-27T07:31:32.815Z,690
2018-03-27T07:32:32.683Z,840
2018-03-27T07:33:47.784Z,575
2018-03-27T07:34:32.633Z,490
2018-03-27T07:35:33.174Z,660
2018-03-27T07:36:47.337Z,600
2018-03-27T07:37:32.454Z,410
2018-03-27T07:38:33.358Z,230
2018-03-27T07:39:33.302Z,195
2018-03-27T07:40:33.548Z,180
2018-03-27T07:41:33.072Z,170
2018-03-27T07:42:47.756Z,165
2018-03-27T07:43:32.856Z,165
2018-03-27T07:44:33.402Z,165
2018-03-27T07:45:33.182Z,170
2018-03-27T07:46:33.460Z,180
2018-03-27T07:47:33.225Z,175
2018-03-27T07:48:33.241Z,170
2018-03-27T07:49:33.572Z,165
2018-03-27T07:50:33.292Z,160
2018-03-27T07:51:33.571Z,160
2018-03-27T07:52:33.354Z,155
2018-03-27T07:53:48.281Z,155
2018-03-27T07:54:33.704Z,155
2018-03-27T07:55:48.066Z,160
2018-03-27T07:56:33.174Z,165
2018-03-27T07:57:48.114Z,170
2018-03-27T07:59:02.794Z,185
2018-03-27T07:59:33.236Z,195
2018-03-27T08:00:48.184Z,260
2018-03-27T08:01:33.805Z,235
2018-03-27T08:02:33.834Z,310
2018-03-27T08:03:33.644Z,685
2018-03-27T08:04:48.281Z,800
2018-03-27T08:05:33.632Z,370
2018-03-27T08:06:48.574Z,215
2018-03-27T08:07:33.777Z,200
2018-03-27T08:08:33.702Z,195
2018-03-27T08:09:33.461Z,190
2018-03-27T08:10:33.853Z,185
2018-03-27T08:11:33.768Z,190
2018-03-27T08:12:33.531Z,625
2018-03-27T08:13:48.475Z,730
2018-03-27T08:15:03.414Z,715
2018-03-27T08:15:48.520Z,715
2018-03-27T08:16:48.797Z,710
2018-03-27T08:17:34.163Z,700
2018-03-27T08:18:34.433Z,680
2018-03-27T08:19:48.608Z,675
2018-03-27T08:21:34.268Z,690
2018-03-27T08:22:34.297Z,700
2018-03-27T08:23:34.366Z,685
2018-03-27T08:24:34.188Z,680
2018-03-27T08:25:34.374Z,685
2018-03-27T08:26:33.860Z,670
2018-03-27T08:27:33.712Z,590
2018-03-27T08:28:34.014Z,600
2018-03-27T08:29:34.471Z,640
2018-03-27T08:32:34.335Z,650
2018-03-27T08:33:34.034Z,640
2018-03-27T08:34:34.586Z,630
2018-03-27T08:35:34.343Z,630
2018-03-27T08:36:34.529Z,610
2018-03-27T08:37:34.660Z,600
2018-03-27T08:38:34.678Z,595
2018-03-27T08:39:49.148Z,360
2018-03-27T08:40:49.136Z,360
2018-03-27T08:41:49.159Z,425
2018-03-27T08:42:34.554Z,415
2018-03-27T08:43:34.038Z,505
2018-03-27T08:44:34.848Z,545
2018-03-27T08:45:34.341Z,555
2018-03-27T08:46:49.553Z,545
2018-03-27T08:48:34.954Z,530
2018-03-27T08:49:49.642Z,525
2018-03-27T08:50:34.476Z,515
2018-03-27T08:51:35.019Z,485
2018-03-27T08:52:34.787Z,510
2018-03-27T08:53:49.734Z,500
2018-03-27T08:54:49.010Z,455
2018-03-27T08:55:35.128Z,355
2018-03-27T08:56:49.812Z,365
2018-03-27T08:57:34.916Z,450
2018-03-27T08:58:35.217Z,505
2018-03-27T08:59:34.972Z,515
2018-03-27T09:00:35.327Z,505
2018-03-27T09:01:49.943Z,500
2018-03-27T09:02:35.309Z,510
2018-03-27T09:03:35.094Z,500
2018-03-27T09:04:35.100Z,510
2018-03-27T09:05:35.134Z,485
2018-03-27T09:06:35.156Z,505
2018-03-27T09:07:35.202Z,505
2018-03-27T09:08:35.208Z,210
2018-03-27T09:09:35.495Z,215
2018-03-27T09:10:35.258Z,220
2018-03-27T09:11:35.547Z,480
2018-03-27T09:12:50.232Z,510
2018-03-27T09:13:35.339Z,495
2018-03-27T09:14:50.285Z,470
2018-03-27T09:15:35.651Z,475
2018-03-27T09:16:35.685Z,430
2018-03-27T09:17:35.186Z,340
2018-03-27T09:18:35.473Z,370
2018-03-27T09:19:35.500Z,325
2018-03-27T09:20:35.787Z,245
2018-03-27T09:21:35.819Z,270
2018-03-27T09:22:35.834Z,255
2018-03-27T09:23:50.259Z,200
2018-03-27T09:24:35.894Z,190
2018-03-27T09:25:50.567Z,280
2018-03-27T09:27:35.705Z,215
2018-03-27T09:28:35.761Z,245
2018-03-27T09:29:36.017Z,150
2018-03-27T09:30:36.038Z,140
2018-03-27T09:31:35.817Z,135
2018-03-27T09:32:50.751Z,130
2018-03-27T09:33:50.260Z,125
2018-03-27T09:34:35.629Z,120
2018-03-27T09:35:36.234Z,110
2018-03-27T09:36:35.945Z,110
2018-03-27T09:37:36.060Z,105
2018-03-27T09:38:36.270Z,105
2018-03-27T09:39:36.013Z,105
2018-03-27T09:40:36.313Z,105
2018-03-27T09:41:36.324Z,105
2018-03-27T09:42:36.442Z,105
2018-03-27T09:43:36.375Z,105
2018-03-27T09:44:35.870Z,105
2018-03-27T09:45:36.221Z,105
2018-03-27T09:46:36.440Z,115
2018-03-27T09:47:35.940Z,145
2018-03-27T09:48:36.485Z,115
2018-03-27T09:49:51.176Z,110
2018-03-27T09:51:50.953Z,110
2018-03-27T09:52:36.583Z,115
2018-03-27T09:53:36.090Z,115
2018-03-27T09:54:36.365Z,120
2018-03-27T09:55:36.711Z,120
2018-03-27T09:56:51.332Z,120
2018-03-27T09:57:36.276Z,125
2018-03-27T09:58:36.572Z,130
2018-03-27T09:59:51.144Z,135
2018-03-27T10:00:36.771Z,135
2018-03-27T10:01:36.526Z,140
2018-03-27T10:02:36.305Z,135
2018-03-27T10:03:36.312Z,145
2018-03-27T10:04:36.865Z,150
2018-03-27T10:05:51.275Z,155
2018-03-27T10:06:36.638Z,155
2018-03-27T10:07:36.926Z,155
2018-03-27T10:08:51.418Z,160
2018-03-27T10:09:36.712Z,150
2018-03-27T10:10:51.679Z,145
2018-03-27T10:11:37.014Z,140
2018-03-27T10:12:36.780Z,135
2018-03-27T10:13:51.723Z,135
2018-03-27T10:14:37.094Z,135
2018-03-27T10:15:36.591Z,135
2018-03-27T10:16:37.134Z,135
2018-03-27T10:17:36.630Z,130
2018-03-27T10:18:36.917Z,130
2018-03-27T10:19:37.197Z,130
2018-03-27T10:20:37.221Z,130
2018-03-27T10:22:06.615Z,135
2018-03-27T10:22:37.263Z,135
2018-03-27T10:23:37.288Z,140
2018-03-27T10:24:36.792Z,140
2018-03-27T10:25:51.728Z,140
2018-03-27T10:26:37.369Z,140
2018-03-27T10:27:51.774Z,140
2018-03-27T10:28:36.882Z,140
2018-03-27T10:29:37.422Z,140
2018-03-27T10:30:52.208Z,140
2018-03-27T10:31:37.475Z,140
2018-03-27T10:32:37.531Z,140
2018-03-27T10:33:37.518Z,140
2018-03-27T10:34:52.188Z,145
2018-03-27T10:35:52.020Z,145
2018-03-27T10:36:51.716Z,150
2018-03-27T10:37:37.342Z,150
2018-03-27T10:38:37.574Z,150
2018-03-27T10:40:37.403Z,155
2018-03-27T10:41:37.425Z,150
2018-03-27T10:42:37.448Z,150
2018-03-27T10:43:37.727Z,150
2018-03-27T10:44:51.898Z,145
2018-03-27T10:45:37.557Z,150
2018-03-27T10:46:37.798Z,150
2018-03-27T10:47:37.570Z,150
2018-03-27T10:48:37.941Z,150
2018-03-27T10:49:37.860Z,150
2018-03-27T10:50:37.638Z,150
2018-03-27T10:51:52.574Z,150
2018-03-27T10:53:37.944Z,145
2018-03-27T10:54:52.110Z,140
2018-03-27T10:57:38.044Z,135
2018-03-27T10:58:37.344Z,135
2018-03-27T10:59:38.076Z,130
2018-03-27T11:00:38.107Z,130
2018-03-27T11:01:37.863Z,125
2018-03-27T11:02:37.883Z,125
2018-03-27T11:03:52.947Z,120
2018-03-27T11:04:37.930Z,120
2018-03-27T11:05:52.611Z,115
2018-03-27T11:06:52.727Z,115
2018-03-27T11:07:38.252Z,115
2018-03-27T11:08:52.929Z,110
2018-03-27T11:09:38.036Z,110
2018-03-27T11:10:38.321Z,105
2018-03-27T11:11:52.736Z,105
2018-03-27T11:12:38.104Z,110
2018-03-27T11:13:38.381Z,110
2018-03-27T11:14:52.801Z,110
2018-03-27T11:15:37.911Z,110
2018-03-27T11:16:38.196Z,110
2018-03-27T11:17:38.679Z,110
2018-03-27T11:18:38.233Z,105
2018-03-27T11:19:38.254Z,110
2018-03-27T11:20:38.276Z,110
2018-03-27T11:21:38.297Z,110
2018-03-27T11:22:38.580Z,115
2018-03-27T11:23:38.609Z,115
2018-03-27T11:24:53.022Z,120
2018-03-27T11:25:38.647Z,125
2018-03-27T11:26:53.064Z,130
2018-03-27T11:27:38.432Z,130
2018-03-27T11:28:38.449Z,135
2018-03-27T11:29:53.127Z,135
2018-03-27T11:30:38.246Z,140
2018-03-27T11:31:38.519Z,135
2018-03-27T11:33:53.481Z,135
2018-03-27T11:34:53.240Z,135
2018-03-27T11:35:38.868Z,135
2018-03-27T11:36:38.883Z,135
2018-03-27T11:37:38.914Z,135
2018-03-27T11:38:38.675Z,135
2018-03-27T11:39:38.697Z,135
2018-03-27T11:40:53.634Z,130
2018-03-27T11:42:38.760Z,130
2018-03-27T11:43:39.041Z,130
2018-03-27T11:44:39.071Z,130
2018-03-27T11:45:38.923Z,130
2018-03-27T11:46:39.103Z,130
2018-03-27T11:47:53.524Z,130
2018-03-27T11:48:39.152Z,130
2018-03-27T11:49:38.913Z,130
2018-03-27T11:50:39.252Z,130
2018-03-27T11:51:53.613Z,130
2018-03-27T11:52:39.231Z,130
2018-03-27T11:53:39.054Z,135
2018-03-27T11:54:39.528Z,135
2018-03-27T11:55:39.093Z,135
2018-03-27T11:57:08.641Z,135
2018-03-27T11:57:38.827Z,135
2018-03-27T11:58:38.627Z,135
2018-03-27T11:59:39.393Z,135
2018-03-27T12:00:39.158Z,135
2018-03-27T12:01:54.090Z,135
2018-03-27T12:02:39.192Z,135
2018-03-27T12:03:54.134Z,140
2018-03-27T12:04:39.241Z,140
2018-03-27T12:05:39.257Z,135
2018-03-27T12:06:39.279Z,135
2018-03-27T12:07:39.433Z,135
2018-03-27T12:08:39.327Z,135
2018-03-27T12:09:54.269Z,135
2018-03-27T12:10:38.854Z,135
2018-03-27T12:12:54.342Z,130
2018-03-27T12:13:54.356Z,130
2018-03-27T12:14:39.457Z,125
2018-03-27T12:15:39.810Z,125
2018-03-27T12:16:39.247Z,125
2018-03-27T12:17:39.787Z,120
2018-03-27T12:18:54.461Z,120
2018-03-27T12:20:39.862Z,115
2018-03-27T12:21:54.267Z,115
2018-03-27T12:23:39.916Z,110
2018-03-27T12:24:54.403Z,105
2018-03-27T12:25:39.717Z,105
2018-03-27T12:26:39.980Z,105
2018-03-27T12:27:40.011Z,105
2018-03-27T12:28:39.783Z,105
2018-03-27T12:29:54.441Z,105
2018-03-27T12:30:39.558Z,105
2018-03-27T12:31:39.971Z,105
2018-03-27T12:32:54.246Z,110
2018-03-27T12:33:39.870Z,115
2018-03-27T12:34:40.152Z,110
2018-03-27T12:35:54.831Z,110
2018-03-27T12:36:39.930Z,110
2018-03-27T12:37:54.616Z,115
2018-03-27T12:38:39.459Z,115
2018-03-27T12:39:40.005Z,115
2018-03-27T12:40:39.758Z,115
2018-03-27T12:41:40.305Z,120
2018-03-27T12:42:54.724Z,125
2018-03-27T12:43:54.794Z,145
2018-03-27T12:44:40.369Z,135
2018-03-27T12:45:40.123Z,135
2018-03-27T12:46:40.404Z,140
2018-03-27T12:47:39.908Z,150
2018-03-27T12:48:40.459Z,155
2018-03-27T12:49:54.611Z,155
2018-03-27T12:50:39.975Z,160
2018-03-27T12:51:40.513Z,160
2018-03-27T12:52:40.550Z,155
2018-03-27T12:54:40.327Z,160
2018-03-27T12:55:55.276Z,165
2018-03-27T12:56:55.024Z,165
2018-03-27T12:58:39.884Z,160
2018-03-27T12:59:55.342Z,185
2018-03-27T13:00:40.456Z,185
2018-03-27T13:01:55.129Z,190
2018-03-27T13:02:40.751Z,185
2018-03-27T13:03:40.772Z,150
2018-03-27T13:04:40.790Z,170
2018-03-27T13:05:40.756Z,165
2018-03-27T13:06:55.494Z,170
2018-03-27T13:07:40.695Z,155
2018-03-27T13:08:40.616Z,190
2018-03-27T13:09:40.903Z,145
2018-03-27T13:10:40.672Z,145
2018-03-27T13:11:55.720Z,140
2018-03-27T13:12:40.962Z,140
2018-03-27T13:13:40.483Z,140
2018-03-27T13:14:41.031Z,135
2018-03-27T13:16:55.721Z,135
2018-03-27T13:17:41.158Z,135
2018-03-27T13:18:40.587Z,135
2018-03-27T13:19:40.871Z,130
2018-03-27T13:21:55.828Z,135
2018-03-27T13:22:55.844Z,110
2018-03-27T13:23:56.010Z,100
2018-03-27T13:24:41.226Z,90
2018-03-27T13:25:41.248Z,90
2018-03-27T13:26:41.266Z,85
2018-03-27T13:27:41.030Z,85
2018-03-27T13:28:41.310Z,80
2018-03-27T13:29:41.333Z,75
2018-03-27T13:30:41.348Z,70
2018-03-27T13:31:55.515Z,70
2018-03-27T13:32:41.398Z,75
2018-03-27T13:33:41.160Z,70
2018-03-27T13:34:41.443Z,70
2018-03-27T13:35:41.463Z,65
2018-03-27T13:36:41.226Z,65
2018-03-27T13:37:40.981Z,65
2018-03-27T13:38:41.006Z,60
2018-03-27T13:39:56.208Z,60
2018-03-27T13:40:41.050Z,60
2018-03-27T13:41:41.069Z,60
2018-03-27T13:42:41.627Z,60
2018-03-27T13:43:56.287Z,60
2018-03-27T13:44:41.395Z,60
2018-03-27T13:45:41.673Z,60
2018-03-27T13:47:11.015Z,60
2018-03-27T13:47:41.452Z,60
2018-03-27T13:48:41.482Z,60
2018-03-27T13:49:41.763Z,60
2018-03-27T13:50:41.258Z,55
2018-03-27T13:51:41.802Z,55
2018-03-27T13:52:41.558Z,55
2018-03-27T13:53:41.411Z,55
2018-03-27T13:55:56.278Z,55
2018-03-27T13:56:41.651Z,55
2018-03-27T13:57:56.581Z,55
2018-03-27T13:58:41.423Z,55
2018-03-27T13:59:41.710Z,55
2018-03-27T14:00:56.384Z,55
2018-03-27T14:01:56.661Z,55
2018-03-27T14:02:41.814Z,55
2018-03-27T14:03:42.052Z,55
2018-03-27T14:04:42.068Z,55
2018-03-27T14:05:41.832Z,60
2018-03-27T14:06:41.067Z,60
2018-03-27T14:07:41.868Z,60
2018-03-27T14:08:41.887Z,60
2018-03-27T14:09:42.462Z,65
2018-03-27T14:10:56.585Z,65
2018-03-27T14:11:42.211Z,65
2018-03-27T14:12:56.632Z,65
2018-03-27T14:13:42.265Z,70
2018-03-27T14:14:42.008Z,70
2018-03-27T14:15:41.774Z,70
2018-03-27T14:16:41.790Z,70
2018-03-27T14:17:42.075Z,70
2018-03-27T14:18:57.006Z,70
2018-03-27T14:19:42.384Z,70
2018-03-27T14:20:42.395Z,70
2018-03-27T14:21:42.414Z,70
2018-03-27T14:22:42.171Z,70
2018-03-27T14:23:57.118Z,70
2018-03-27T14:24:42.491Z,70
2018-03-27T14:25:41.974Z,70
2018-03-27T14:26:41.997Z,70
2018-03-27T14:27:42.279Z,70
2018-03-27T14:28:42.553Z,70
2018-03-27T14:29:41.795Z,70
2018-03-27T14:30:42.782Z,70
2018-03-27T14:31:42.619Z,70
2018-03-27T14:32:41.859Z,70
2018-03-27T14:33:57.057Z,70
2018-03-27T14:34:56.823Z,70
2018-03-27T14:35:42.704Z,70
2018-03-27T14:36:42.817Z,65
2018-03-27T14:37:42.478Z,65
2018-03-27T14:38:42.498Z,65
2018-03-27T14:39:42.516Z,65
2018-03-27T14:40:42.541Z,60
2018-03-27T14:41:42.822Z,60
2018-03-27T14:42:56.720Z,60
2018-03-27T14:44:57.812Z,60
2018-03-27T14:45:42.899Z,60
2018-03-27T14:46:42.942Z,55
2018-03-27T14:47:42.691Z,55
2018-03-27T14:48:57.361Z,55
2018-03-27T14:49:42.994Z,55
2018-03-27T14:50:57.677Z,55
2018-03-27T14:51:42.762Z,55
2018-03-27T14:52:57.438Z,55
2018-03-27T14:54:42.566Z,55
2018-03-27T14:55:43.106Z,55
2018-03-27T14:56:42.862Z,55
2018-03-27T14:57:43.150Z,55
2018-03-27T14:58:42.903Z,55
2018-03-27T14:59:42.923Z,55
2018-03-27T15:00:43.240Z,55
2018-03-27T15:01:57.619Z,55
2018-03-27T15:02:43.246Z,55